Time;durP1;ratioP1;P1;durP2;ratioP2;P2;SDS_P1;SDS_P2;PMS_P1;PMS_P2;Temp;Humidity;BMP_temperature;BMP_pressure;BME280_temperature;BME280_humidity;BME280_pressure;Samples;Min_cycle;Max_cycle;Signal;HPM_P1;HPM_P2
2023/03/05 00:03:04;;;;;;;5.13;0.90;;;;;;;2.66;46.35;101022.19;20486661;28;20266;-83
2023/03/05 00:13:06;;;;;;;4.23;0.90;;;;;;;2.85;46.32;101016.97;20463613;29;20255;-84
2023/03/05 00:23:09;;;;;;;3.10;1.20;;;;;;;3.27;46.08;101010.38;20449504;29;20600;-84
2023/03/05 00:33:12;;;;;;;4.97;1.10;;;;;;;2.17;49.61;101007.69;20462980;28;20277;-86
2023/03/05 00:43:14;;;;;;;9.50;1.93;;;;;;;3.01;49.04;100998.34;20464367;29;20203;-83
2023/03/05 00:53:16;;;;;;;7.73;1.50;;;;;;;2.89;52.59;101000.53;20465976;29;20207;-85
2023/03/05 01:03:18;;;;;;;5.17;1.00;;;;;;;1.38;58.09;100993.78;20465310;29;20203;-86
2023/03/05 01:13:22;;;;;;;6.10;1.83;;;;;;;2.60;55.96;100975.88;20471445;28;20660;-85
2023/03/05 01:23:25;;;;;;;6.60;1.80;;;;;;;2.49;56.27;100971.38;20468820;29;20250;-85
2023/03/05 01:33:27;;;;;;;7.13;1.80;;;;;;;2.41;56.73;100956.03;20472255;29;20200;-79
2023/03/05 01:43:30;;;;;;;6.40;1.50;;;;;;;2.16;56.77;100947.56;20478549;29;20905;-78
2023/03/05 01:53:32;;;;;;;5.63;1.17;;;;;;;2.85;55.86;100950.03;20464592;29;20266;-78
2023/03/05 02:03:35;;;;;;;5.83;1.80;;;;;;;1.95;57.84;100940.19;20464103;29;20207;-78
2023/03/05 02:13:39;;;;;;;6.47;1.50;;;;;;;1.77;58.09;100932.31;20489698;29;20240;-79
2023/03/05 02:23:41;;;;;;;7.10;1.10;;;;;;;2.41;56.83;100905.03;20482665;29;20195;-78
2023/03/05 02:33:44;;;;;;;7.20;2.27;;;;;;;2.26;56.54;100896.63;20501975;29;20690;-77
2023/03/05 02:43:47;;;;;;;5.13;1.80;;;;;;;2.80;54.29;100886.75;20448077;29;20219;-78
2023/03/05 02:53:49;;;;;;;5.80;2.10;;;;;;;2.36;54.77;100880.78;20441906;29;20239;-81
2023/03/05 03:03:53;;;;;;;6.57;2.43;;;;;;;1.79;56.36;100877.16;20511054;29;20203;-77
2023/03/05 03:13:55;;;;;;;5.53;2.00;;;;;;;2.30;55.16;100848.41;20430999;29;20278;-79
2023/03/05 03:23:57;;;;;;;6.47;1.83;;;;;;;1.70;56.87;100844.31;20471863;29;20244;-77
2023/03/05 03:33:59;;;;;;;4.13;1.10;;;;;;;1.44;58.81;100828.56;20467713;28;20332;-78
2023/03/05 03:44:03;;;;;;;6.40;1.23;;;;;;;1.95;57.05;100817.69;20482150;29;20204;-80
2023/03/05 03:54:05;;;;;;;7.70;2.20;;;;;;;2.31;56.15;100805.53;20472444;29;20555;-78
2023/03/05 04:04:09;;;;;;;6.13;2.20;;;;;;;2.23;56.35;100797.72;20471601;29;20196;-79
2023/03/05 04:14:12;;;;;;;5.20;2.90;;;;;;;1.87;58.04;100791.22;20441793;29;20231;-78
2023/03/05 04:24:14;;;;;;;8.23;3.40;;;;;;;2.45;56.56;100772.38;20452026;29;20270;-78
2023/03/05 04:34:16;;;;;;;5.47;3.37;;;;;;;2.34;57.38;100754.00;20469664;29;20219;-78
2023/03/05 04:44:18;;;;;;;11.83;3.93;;;;;;;2.62;56.10;100749.81;20465148;29;20191;-78
2023/03/05 04:54:21;;;;;;;12.63;7.63;;;;;;;1.40;59.37;100755.09;20447510;29;20685;-79
2023/03/05 05:04:23;;;;;;;15.00;7.60;;;;;;;1.08;60.53;100751.56;20468445;29;20200;-78
2023/03/05 05:14:25;;;;;;;8.20;4.47;;;;;;;1.93;58.21;100747.50;20478101;29;20555;-80
2023/03/05 05:24:27;;;;;;;8.00;3.83;;;;;;;0.95;61.07;100739.81;20446437;29;20191;-78
2023/03/05 05:34:29;;;;;;;8.23;5.20;;;;;;;1.77;59.24;100729.09;20474349;29;20219;-78
2023/03/05 05:44:33;;;;;;;11.50;4.33;;;;;;;1.73;58.80;100726.03;20477263;29;20199;-79
2023/03/05 05:54:35;;;;;;;6.40;2.87;;;;;;;1.79;59.07;100736.06;20480661;29;20208;-79
2023/03/05 06:04:39;;;;;;;6.83;2.20;;;;;;;1.87;57.00;100718.00;20452316;29;20354;-79
2023/03/05 06:14:41;;;;;;;8.07;3.60;;;;;;;2.00;56.88;100714.69;20487189;29;20236;-78
2023/03/05 06:24:43;;;;;;;5.53;3.50;;;;;;;1.38;59.31;100718.41;20480210;29;20188;-78
2023/03/05 06:34:45;;;;;;;7.83;4.10;;;;;;;1.56;58.09;100723.47;20482229;28;20560;-79
2023/03/05 06:44:47;;;;;;;9.97;4.97;;;;;;;1.45;60.97;100723.69;20470729;28;20246;-86
2023/03/05 06:54:50;;;;;;;12.70;6.53;;;;;;;1.52;60.79;100718.69;20468183;28;20360;-77
2023/03/05 07:04:52;;;;;;;17.93;9.50;;;;;;;1.59;61.12;100714.56;20483786;29;20199;-77
2023/03/05 07:14:54;;;;;;;11.53;7.87;;;;;;;1.62;61.08;100714.03;20477642;29;20283;-80
2023/03/05 07:24:56;;;;;;;10.33;5.97;;;;;;;1.46;62.59;100701.16;20480433;28;20235;-78
2023/03/05 07:34:58;;;;;;;12.37;6.93;;;;;;;2.15;59.74;100689.66;20494452;28;20223;-77
2023/03/05 07:45:00;;;;;;;10.20;7.07;;;;;;;2.18;60.49;100683.50;20472215;28;20203;-77
2023/03/05 07:55:03;;;;;;;9.10;4.87;;;;;;;2.50;60.17;100671.25;20471908;28;20227;-76
2023/03/05 08:05:05;;;;;;;10.23;5.57;;;;;;;2.52;60.81;100655.09;20465071;29;20200;-77
2023/03/05 08:15:08;;;;;;;11.53;6.27;;;;;;;1.46;64.28;100676.13;20461127;28;20235;-77
2023/03/05 08:25:10;;;;;;;9.57;6.60;;;;;;;2.50;62.42;100649.78;20474130;29;20258;-83
2023/03/05 08:35:12;;;;;;;8.80;5.77;;;;;;;2.44;60.86;100640.59;20474956;28;20247;-69
2023/03/05 08:45:15;;;;;;;7.20;4.97;;;;;;;2.12;60.62;100633.66;20466725;28;20191;-76
2023/03/05 08:55:17;;;;;;;10.70;6.80;;;;;;;2.15;60.20;100633.09;20474328;28;20317;-78
2023/03/05 09:05:19;;;;;;;9.47;6.87;;;;;;;2.32;58.99;100622.50;20470516;28;20226;-77
2023/03/05 09:15:21;;;;;;;10.67;7.40;;;;;;;2.42;59.83;100617.72;20456651;28;20654;-82
2023/03/05 09:25:24;;;;;;;9.27;6.00;;;;;;;2.20;60.50;100614.41;20463430;28;20563;-83
2023/03/05 09:35:26;;;;;;;12.23;8.27;;;;;;;2.61;59.22;100606.00;20480231;28;20699;-79
2023/03/05 09:45:57;;;;;;;13.13;10.20;;;;;;;1.94;61.41;100599.66;20460637;28;20231;-82
2023/03/05 09:56:03;;;;;;;10.83;9.47;;;;;;;2.80;58.62;100594.00;20453670;29;20690;-84
2023/03/05 10:06:14;;;;;;;11.53;9.17;;;;;;;2.12;60.08;100603.84;20444636;28;20550;-78
2023/03/05 10:16:57;;;;;;;13.47;9.40;;;;;;;3.39;57.34;100576.44;20456081;29;21692;-78
2023/03/05 10:27:33;;;;;;;11.60;10.03;;;;;;;2.38;61.14;100569.28;20453763;29;20218;-79
2023/03/05 10:37:55;;;;;;;13.03;10.33;;;;;;;2.89;58.90;100560.78;20433596;29;20577;-77
2023/03/05 10:48:06;;;;;;;7.10;6.37;;;;;;;2.85;58.12;100550.47;20469625;29;20223;-82
2023/03/05 10:58:13;;;;;;;12.93;8.60;;;;;;;3.05;59.18;100536.47;20474705;28;20457;-85
2023/03/05 11:08:18;;;;;;;9.57;6.77;;;;;;;2.86;58.80;100524.28;20468702;28;20513;-85
2023/03/05 11:18:22;;;;;;;8.20;5.77;;;;;;;3.48;56.88;100513.28;20455214;28;20607;-87
2023/03/05 11:28:28;;;;;;;5.67;4.23;;;;;;;3.38;57.50;100502.19;20457110;29;20629;-83
2023/03/05 11:38:45;;;;;;;4.47;3.37;;;;;;;3.32;58.16;100505.31;20445541;29;20255;-82
2023/03/05 11:48:48;;;;;;;3.73;3.27;;;;;;;3.44;57.08;100481.50;20463338;28;20196;-82
2023/03/05 11:59:00;;;;;;;8.13;3.37;;;;;;;3.70;55.64;100470.97;20436278;28;20405;-83
2023/03/05 12:09:29;;;;;;;5.70;2.80;;;;;;;3.21;55.73;100456.28;20443632;28;20580;-82
2023/03/05 12:19:46;;;;;;;2.50;2.23;;;;;;;3.99;53.37;100439.38;20476372;28;20219;-82
2023/03/05 12:29:53;;;;;;;2.40;2.10;;;;;;;2.20;56.95;100441.75;20464400;28;20250;-85
2023/03/05 12:39:59;;;;;;;5.77;2.77;;;;;;;3.07;55.26;100420.66;20455928;29;20254;-86
2023/03/05 12:50:02;;;;;;;6.80;3.60;;;;;;;3.45;57.49;100399.47;20439154;28;20667;-85
2023/03/05 13:00:20;;;;;;;5.63;3.73;;;;;;;3.76;56.32;100380.44;20465391;28;20246;-78
2023/03/05 13:10:27;;;;;;;5.17;3.87;;;;;;;3.18;54.75;100373.19;20465706;28;20231;-81
2023/03/05 13:20:38;;;;;;;4.73;4.00;;;;;;;4.54;54.32;100340.91;20448067;29;20669;-80
2023/03/05 13:30:50;;;;;;;6.27;4.43;;;;;;;4.64;52.06;100322.31;20452434;28;20198;-80
2023/03/05 13:41:04;;;;;;;7.30;5.67;;;;;;;4.80;50.73;100310.59;20448417;28;20223;-81
2023/03/05 13:51:08;;;;;;;5.20;4.40;;;;;;;4.58;51.26;100304.81;20483489;29;20258;-81
2023/03/05 14:01:31;;;;;;;5.47;4.60;;;;;;;4.26;51.30;100288.78;20460163;29;20334;-82
2023/03/05 14:11:34;;;;;;;5.30;3.90;;;;;;;4.37;49.12;100267.13;20453601;29;20247;-82
2023/03/05 14:21:48;;;;;;;4.73;3.47;;;;;;;4.79;48.51;100257.75;20464140;29;20289;-83
2023/03/05 14:31:58;;;;;;;4.20;3.80;;;;;;;4.68;47.76;100242.28;20454931;29;20215;-83
2023/03/05 14:42:23;;;;;;;4.93;3.90;;;;;;;4.61;47.59;100222.28;20465508;28;20226;-83
2023/03/05 14:52:27;;;;;;;4.60;3.73;;;;;;;4.82;47.61;100204.03;20454252;28;20207;-84
2023/03/05 15:02:29;;;;;;;4.20;3.77;;;;;;;4.37;47.69;100192.47;20456393;29;20220;-83
2023/03/05 15:12:31;;;;;;;8.50;6.37;;;;;;;4.61;47.98;100171.97;20470431;29;20223;-84
2023/03/05 15:22:33;;;;;;;3.57;3.27;;;;;;;4.38;48.37;100168.97;20453179;29;20620;-81
2023/03/05 15:32:36;;;;;;;3.37;2.47;;;;;;;4.66;46.69;100152.28;20467815;28;20194;-85
2023/03/05 15:42:38;;;;;;;6.83;5.57;;;;;;;3.99;48.17;100155.31;20466542;28;20222;-82
2023/03/05 15:52:41;;;;;;;8.77;7.70;;;;;;;4.51;47.57;100137.44;20445967;28;20282;-83
2023/03/05 16:02:44;;;;;;;11.70;8.80;;;;;;;4.27;45.62;100127.53;20469486;28;20220;-83
2023/03/05 16:12:50;;;;;;;6.60;5.53;;;;;;;3.64;49.09;100125.13;20455330;28;20259;-83
2023/03/05 16:22:52;;;;;;;8.33;5.60;;;;;;;4.31;46.03;100107.06;20443127;29;20282;-81
2023/03/05 16:32:55;;;;;;;8.47;6.50;;;;;;;3.90;47.72;100101.28;20470871;29;20199;-83
2023/03/05 16:42:57;;;;;;;7.23;6.37;;;;;;;3.37;47.51;100097.88;20456179;29;20220;-81
2023/03/05 16:52:59;;;;;;;8.67;6.30;;;;;;;4.22;46.92;100080.97;20473563;29;20243;-83
2023/03/05 17:03:02;;;;;;;6.93;5.97;;;;;;;2.96;52.15;100092.81;20464253;28;20220;-81
2023/03/05 17:13:05;;;;;;;10.07;6.60;;;;;;;2.84;53.24;100099.94;20448027;28;20223;-81
2023/03/05 17:23:07;;;;;;;7.57;6.80;;;;;;;3.19;51.87;100091.16;20461716;29;20699;-81
2023/03/05 17:33:10;;;;;;;7.13;6.07;;;;;;;3.17;52.53;100093.41;20469136;29;20226;-81
2023/03/05 17:43:12;;;;;;;10.37;7.43;;;;;;;2.90;54.47;100088.47;20471086;29;20585;-81
2023/03/05 17:53:15;;;;;;;8.00;7.17;;;;;;;3.33;54.33;100086.53;20461688;29;20219;-81
2023/03/05 18:03:17;;;;;;;10.60;7.80;;;;;;;3.06;55.94;100081.56;20464219;29;20255;-82
2023/03/05 18:13:19;;;;;;;11.97;8.57;;;;;;;3.12;56.85;100069.22;20481205;28;20251;-82
2023/03/05 18:23:21;;;;;;;12.57;8.97;;;;;;;2.91;59.16;100061.41;20478107;28;20219;-80
2023/03/05 18:33:24;;;;;;;11.33;8.87;;;;;;;3.25;58.12;100055.66;20462240;29;20200;-80
2023/03/05 18:43:26;;;;;;;12.87;9.53;;;;;;;2.89;58.60;100053.34;20454234;29;20687;-80
2023/03/05 18:53:29;;;;;;;9.63;7.70;;;;;;;3.28;55.51;100038.31;20474673;29;20232;-80
2023/03/05 19:03:31;;;;;;;11.07;8.37;;;;;;;3.44;55.88;100032.22;20475999;29;20289;-80
2023/03/05 19:13:47;;;;;;;10.47;7.87;;;;;;;2.66;56.83;100027.13;20456470;29;20289;-79
2023/03/05 19:23:49;;;;;;;10.23;7.37;;;;;;;2.78;57.07;100023.94;20466763;29;20270;-80
2023/03/05 19:33:53;;;;;;;8.10;6.57;;;;;;;2.27;59.06;100030.06;20461595;29;20191;-81
2023/03/05 19:43:55;;;;;;;10.37;8.33;;;;;;;1.66;61.87;100029.75;20434566;29;20227;-81
2023/03/05 19:53:57;;;;;;;14.00;10.33;;;;;;;1.18;63.67;100014.78;20476541;29;20453;-80
2023/03/05 20:04:01;;;;;;;11.97;9.40;;;;;;;1.42;63.39;100006.56;20433005;29;20239;-80
2023/03/05 20:14:03;;;;;;;9.73;7.37;;;;;;;1.61;62.56;99997.25;20483217;28;20516;-80
2023/03/05 20:24:09;;;;;;;10.83;8.17;;;;;;;1.22;62.93;99990.88;20442961;28;20219;-80
2023/03/05 20:34:14;;;;;;;10.53;8.40;;;;;;;1.72;61.49;99978.53;20464670;29;20192;-81
2023/03/05 20:44:16;;;;;;;11.70;9.23;;;;;;;1.34;63.84;99969.09;20446250;29;20690;-80
2023/03/05 20:54:18;;;;;;;10.93;8.90;;;;;;;1.95;60.62;99955.47;20456875;28;20204;-81
2023/03/05 21:04:21;;;;;;;11.03;9.13;;;;;;;2.07;60.50;99949.50;20485863;29;20259;-80
2023/03/05 21:14:23;;;;;;;11.10;8.83;;;;;;;1.36;62.50;99936.28;20470637;29;20228;-81
2023/03/05 21:24:31;;;;;;;12.37;9.57;;;;;;;1.25;62.85;99921.63;20474046;29;20227;-80
2023/03/05 21:34:33;;;;;;;15.03;10.17;;;;;;;0.76;64.16;99916.06;20468413;29;20255;-80
2023/03/05 21:44:36;;;;;;;13.07;10.03;;;;;;;1.01;62.94;99899.22;20484462;29;20512;-81
2023/03/05 21:54:38;;;;;;;12.93;10.07;;;;;;;1.47;62.45;99887.78;20465625;28;20497;-81
2023/03/05 22:04:41;;;;;;;11.77;9.80;;;;;;;1.53;61.88;99881.03;20473261;28;20631;-79
2023/03/05 22:14:43;;;;;;;14.57;10.90;;;;;;;1.53;62.07;99846.81;20474937;29;20278;-80
2023/03/05 22:24:45;;;;;;;15.90;11.03;;;;;;;2.15;60.78;99837.47;20486333;29;20243;-80
2023/03/05 22:34:47;;;;;;;13.93;10.37;;;;;;;2.08;60.22;99823.91;20480121;29;20560;-81
2023/03/05 22:44:55;;;;;;;14.53;10.73;;;;;;;2.18;59.79;99806.22;20453326;29;20620;-80
2023/03/05 22:54:57;;;;;;;12.73;10.57;;;;;;;2.05;60.13;99805.00;20480297;29;20255;-81
2023/03/05 23:04:59;;;;;;;13.53;11.37;;;;;;;1.69;61.98;99790.72;20459052;29;20274;-80
2023/03/05 23:15:05;;;;;;;15.90;12.13;;;;;;;1.92;61.98;99777.06;20470416;28;20227;-80
2023/03/05 23:25:07;;;;;;;17.33;13.17;;;;;;;2.08;60.35;99778.53;20460951;29;20280;-80
2023/03/05 23:35:11;;;;;;;20.33;14.30;;;;;;;1.58;62.56;99766.94;20463466;29;20259;-80
2023/03/05 23:45:15;;;;;;;22.50;16.23;;;;;;;1.89;62.35;99761.00;20488812;29;20219;-81
2023/03/05 23:55:30;;;;;;;23.90;18.43;;;;;;;1.92;62.04;99749.25;20458051;29;20577;-81
